sensor_id;sensor_type;location;lat;lon;timestamp;temperature;humidity
11748;DHT22;5931;48.832;9.072;2024-02-16T00:02:18;8.10;99.90
11748;DHT22;5931;48.832;9.072;2024-02-16T00:04:44;8.10;99.90
11748;DHT22;5931;48.832;9.072;2024-02-16T00:07:10;8.10;99.90
11748;DHT22;5931;48.832;9.072;2024-02-16T00:09:36;8.20;99.90
11748;DHT22;5931;48.832;9.072;2024-02-16T00:12:02;8.20;99.90
11748;DHT22;5931;48.832;9.072;2024-02-16T00:14:28;8.20;99.90
11748;DHT22;5931;48.832;9.072;2024-02-16T00:16:53;8.20;99.90
11748;DHT22;5931;48.832;9.072;2024-02-16T00:19:19;8.20;99.90
11748;DHT22;5931;48.832;9.072;2024-02-16T00:21:45;8.20;99.90
11748;DHT22;5931;48.832;9.072;2024-02-16T00:24:11;8.20;99.90
11748;DHT22;5931;48.832;9.072;2024-02-16T00:26:37;8.30;99.90
11748;DHT22;5931;48.832;9.072;2024-02-16T00:29:05;8.30;99.90
11748;DHT22;5931;48.832;9.072;2024-02-16T00:31:31;8.30;99.90
11748;DHT22;5931;48.832;9.072;2024-02-16T00:33:56;8.20;99.90
11748;DHT22;5931;48.832;9.072;2024-02-16T00:36:22;8.20;99.90
11748;DHT22;5931;48.832;9.072;2024-02-16T00:38:49;8.30;99.90
11748;DHT22;5931;48.832;9.072;2024-02-16T00:41:22;8.30;99.90
11748;DHT22;5931;48.832;9.072;2024-02-16T00:43:49;8.40;99.90
11748;DHT22;5931;48.832;9.072;2024-02-16T00:46:15;8.40;99.90
11748;DHT22;5931;48.832;9.072;2024-02-16T00:48:41;8.40;99.90
11748;DHT22;5931;48.832;9.072;2024-02-16T00:51:06;8.40;99.90
11748;DHT22;5931;48.832;9.072;2024-02-16T00:53:32;8.50;99.90
11748;DHT22;5931;48.832;9.072;2024-02-16T00:55:58;8.50;99.90
11748;DHT22;5931;48.832;9.072;2024-02-16T00:58:24;8.50;99.90
11748;DHT22;5931;48.832;9.072;2024-02-16T01:00:49;8.60;99.90
11748;DHT22;5931;48.832;9.072;2024-02-16T01:03:15;8.50;99.90
11748;DHT22;5931;48.832;9.072;2024-02-16T01:05:41;8.60;99.90
11748;DHT22;5931;48.832;9.072;2024-02-16T01:08:07;8.60;99.90
11748;DHT22;5931;48.832;9.072;2024-02-16T01:10:33;8.60;99.90
11748;DHT22;5931;48.832;9.072;2024-02-16T01:12:58;8.60;99.90
11748;DHT22;5931;48.832;9.072;2024-02-16T01:15:24;8.50;99.90
11748;DHT22;5931;48.832;9.072;2024-02-16T01:17:50;8.50;99.90
11748;DHT22;5931;48.832;9.072;2024-02-16T01:20:16;8.50;99.90
11748;DHT22;5931;48.832;9.072;2024-02-16T01:22:42;8.50;99.90
11748;DHT22;5931;48.832;9.072;2024-02-16T01:25:08;8.50;99.90
11748;DHT22;5931;48.832;9.072;2024-02-16T01:27:35;8.70;99.90
11748;DHT22;5931;48.832;9.072;2024-02-16T01:30:01;8.80;99.90
11748;DHT22;5931;48.832;9.072;2024-02-16T01:32:27;8.90;99.90
11748;DHT22;5931;48.832;9.072;2024-02-16T01:34:52;9.10;99.90
11748;DHT22;5931;48.832;9.072;2024-02-16T01:37:18;9.20;99.90
11748;DHT22;5931;48.832;9.072;2024-02-16T01:39:44;9.20;99.90
11748;DHT22;5931;48.832;9.072;2024-02-16T01:42:11;9.20;99.90
11748;DHT22;5931;48.832;9.072;2024-02-16T01:44:37;9.20;99.90
11748;DHT22;5931;48.832;9.072;2024-02-16T01:47:04;9.30;99.90
11748;DHT22;5931;48.832;9.072;2024-02-16T01:49:30;9.40;99.90
11748;DHT22;5931;48.832;9.072;2024-02-16T01:51:56;9.40;99.90
11748;DHT22;5931;48.832;9.072;2024-02-16T01:54:23;9.30;99.90
11748;DHT22;5931;48.832;9.072;2024-02-16T01:56:49;9.30;99.90
11748;DHT22;5931;48.832;9.072;2024-02-16T01:59:16;9.30;99.90
11748;DHT22;5931;48.832;9.072;2024-02-16T02:01:43;9.30;99.90
11748;DHT22;5931;48.832;9.072;2024-02-16T02:04:08;9.30;99.90
11748;DHT22;5931;48.832;9.072;2024-02-16T02:06:34;9.40;99.90
11748;DHT22;5931;48.832;9.072;2024-02-16T02:09:00;9.40;99.90
11748;DHT22;5931;48.832;9.072;2024-02-16T02:11:26;9.50;99.90
11748;DHT22;5931;48.832;9.072;2024-02-16T02:13:53;9.50;99.90
11748;DHT22;5931;48.832;9.072;2024-02-16T02:16:19;9.50;99.90
11748;DHT22;5931;48.832;9.072;2024-02-16T02:18:46;9.60;99.90
11748;DHT22;5931;48.832;9.072;2024-02-16T02:21:12;9.50;99.90
11748;DHT22;5931;48.832;9.072;2024-02-16T02:23:40;9.50;99.90
11748;DHT22;5931;48.832;9.072;2024-02-16T02:26:06;9.50;99.90
11748;DHT22;5931;48.832;9.072;2024-02-16T02:28:32;9.50;99.90
11748;DHT22;5931;48.832;9.072;2024-02-16T02:30:59;9.50;99.90
11748;DHT22;5931;48.832;9.072;2024-02-16T02:33:25;9.50;99.90
11748;DHT22;5931;48.832;9.072;2024-02-16T02:35:51;9.50;99.90
11748;DHT22;5931;48.832;9.072;2024-02-16T02:38:17;9.40;99.90
11748;DHT22;5931;48.832;9.072;2024-02-16T02:40:43;9.40;99.90
11748;DHT22;5931;48.832;9.072;2024-02-16T02:43:09;9.30;99.90
11748;DHT22;5931;48.832;9.072;2024-02-16T02:45:34;9.30;99.90
11748;DHT22;5931;48.832;9.072;2024-02-16T02:48:00;9.30;99.90
11748;DHT22;5931;48.832;9.072;2024-02-16T02:50:26;9.30;99.90
11748;DHT22;5931;48.832;9.072;2024-02-16T02:52:52;9.20;99.90
11748;DHT22;5931;48.832;9.072;2024-02-16T02:55:18;9.20;99.90
11748;DHT22;5931;48.832;9.072;2024-02-16T02:57:44;9.20;99.90
11748;DHT22;5931;48.832;9.072;2024-02-16T03:00:10;9.20;99.90
11748;DHT22;5931;48.832;9.072;2024-02-16T03:02:39;9.20;99.90
11748;DHT22;5931;48.832;9.072;2024-02-16T03:05:06;9.20;99.90
11748;DHT22;5931;48.832;9.072;2024-02-16T03:07:35;9.20;99.90
11748;DHT22;5931;48.832;9.072;2024-02-16T03:10:02;9.20;99.90
11748;DHT22;5931;48.832;9.072;2024-02-16T03:12:28;9.40;99.90
11748;DHT22;5931;48.832;9.072;2024-02-16T03:14:55;9.30;99.90
11748;DHT22;5931;48.832;9.072;2024-02-16T03:17:20;9.30;99.90
11748;DHT22;5931;48.832;9.072;2024-02-16T03:19:46;9.20;99.90
11748;DHT22;5931;48.832;9.072;2024-02-16T03:22:12;9.20;99.90
11748;DHT22;5931;48.832;9.072;2024-02-16T03:24:38;9.10;99.90
11748;DHT22;5931;48.832;9.072;2024-02-16T03:27:04;9.10;99.90
11748;DHT22;5931;48.832;9.072;2024-02-16T03:29:30;9.10;99.90
11748;DHT22;5931;48.832;9.072;2024-02-16T03:31:56;9.00;99.90
11748;DHT22;5931;48.832;9.072;2024-02-16T03:34:22;9.00;99.90
11748;DHT22;5931;48.832;9.072;2024-02-16T03:36:47;8.90;99.90
11748;DHT22;5931;48.832;9.072;2024-02-16T03:39:13;8.80;99.90
11748;DHT22;5931;48.832;9.072;2024-02-16T03:41:45;8.80;99.90
11748;DHT22;5931;48.832;9.072;2024-02-16T03:44:14;8.70;99.90
11748;DHT22;5931;48.832;9.072;2024-02-16T03:46:42;8.70;99.90
11748;DHT22;5931;48.832;9.072;2024-02-16T03:49:09;8.60;99.90
11748;DHT22;5931;48.832;9.072;2024-02-16T03:51:35;8.60;99.90
11748;DHT22;5931;48.832;9.072;2024-02-16T03:54:02;8.60;99.90
11748;DHT22;5931;48.832;9.072;2024-02-16T03:56:30;8.60;99.90
11748;DHT22;5931;48.832;9.072;2024-02-16T03:58:56;8.60;99.90
11748;DHT22;5931;48.832;9.072;2024-02-16T04:01:21;8.60;99.90
11748;DHT22;5931;48.832;9.072;2024-02-16T04:03:47;8.60;99.90
11748;DHT22;5931;48.832;9.072;2024-02-16T04:06:13;8.60;99.90
11748;DHT22;5931;48.832;9.072;2024-02-16T04:08:39;8.60;99.90
11748;DHT22;5931;48.832;9.072;2024-02-16T04:11:05;8.60;99.90
11748;DHT22;5931;48.832;9.072;2024-02-16T04:13:31;8.70;99.90
11748;DHT22;5931;48.832;9.072;2024-02-16T04:15:58;8.80;99.90
11748;DHT22;5931;48.832;9.072;2024-02-16T04:18:24;8.90;99.90
11748;DHT22;5931;48.832;9.072;2024-02-16T04:20:49;8.90;99.90
11748;DHT22;5931;48.832;9.072;2024-02-16T04:23:15;9.00;99.90
11748;DHT22;5931;48.832;9.072;2024-02-16T04:25:41;9.00;99.90
11748;DHT22;5931;48.832;9.072;2024-02-16T04:28:07;9.00;99.90
11748;DHT22;5931;48.832;9.072;2024-02-16T04:30:32;8.90;99.90
11748;DHT22;5931;48.832;9.072;2024-02-16T04:32:58;9.00;99.90
11748;DHT22;5931;48.832;9.072;2024-02-16T04:35:24;9.00;99.90
11748;DHT22;5931;48.832;9.072;2024-02-16T04:37:50;9.00;99.90
11748;DHT22;5931;48.832;9.072;2024-02-16T04:40:16;9.00;99.90
11748;DHT22;5931;48.832;9.072;2024-02-16T04:42:41;9.00;99.90
11748;DHT22;5931;48.832;9.072;2024-02-16T04:45:10;9.00;99.90
11748;DHT22;5931;48.832;9.072;2024-02-16T04:47:36;9.00;99.90
11748;DHT22;5931;48.832;9.072;2024-02-16T04:50:02;9.00;99.90
11748;DHT22;5931;48.832;9.072;2024-02-16T04:52:28;9.00;99.90
11748;DHT22;5931;48.832;9.072;2024-02-16T04:54:54;8.90;99.90
11748;DHT22;5931;48.832;9.072;2024-02-16T04:57:20;8.90;99.90
11748;DHT22;5931;48.832;9.072;2024-02-16T04:59:46;8.90;99.90
11748;DHT22;5931;48.832;9.072;2024-02-16T05:02:12;8.90;99.90
11748;DHT22;5931;48.832;9.072;2024-02-16T05:04:38;8.90;99.90
11748;DHT22;5931;48.832;9.072;2024-02-16T05:07:04;8.80;99.90
11748;DHT22;5931;48.832;9.072;2024-02-16T05:09:32;8.80;99.90
11748;DHT22;5931;48.832;9.072;2024-02-16T05:11:58;8.70;99.90
11748;DHT22;5931;48.832;9.072;2024-02-16T05:14:23;8.70;99.90
11748;DHT22;5931;48.832;9.072;2024-02-16T05:16:49;8.60;99.90
11748;DHT22;5931;48.832;9.072;2024-02-16T05:19:16;8.60;99.90
11748;DHT22;5931;48.832;9.072;2024-02-16T05:21:42;8.50;99.90
11748;DHT22;5931;48.832;9.072;2024-02-16T05:24:08;8.50;99.90
11748;DHT22;5931;48.832;9.072;2024-02-16T05:26:34;8.40;99.90
11748;DHT22;5931;48.832;9.072;2024-02-16T05:28:59;8.40;99.90
11748;DHT22;5931;48.832;9.072;2024-02-16T05:31:25;8.30;99.90
11748;DHT22;5931;48.832;9.072;2024-02-16T05:33:51;8.30;99.90
11748;DHT22;5931;48.832;9.072;2024-02-16T05:36:21;8.20;99.90
11748;DHT22;5931;48.832;9.072;2024-02-16T05:38:50;8.20;99.90
11748;DHT22;5931;48.832;9.072;2024-02-16T05:41:16;8.10;99.90
11748;DHT22;5931;48.832;9.072;2024-02-16T05:43:44;8.20;99.90
11748;DHT22;5931;48.832;9.072;2024-02-16T05:46:14;8.20;99.90
11748;DHT22;5931;48.832;9.072;2024-02-16T05:48:40;8.20;99.90
11748;DHT22;5931;48.832;9.072;2024-02-16T05:51:06;8.20;99.90
11748;DHT22;5931;48.832;9.072;2024-02-16T05:53:32;8.10;99.90
11748;DHT22;5931;48.832;9.072;2024-02-16T05:55:59;8.10;99.90
11748;DHT22;5931;48.832;9.072;2024-02-16T05:58:25;8.00;99.90
11748;DHT22;5931;48.832;9.072;2024-02-16T06:00:51;8.00;99.90
11748;DHT22;5931;48.832;9.072;2024-02-16T06:03:17;7.90;99.90
11748;DHT22;5931;48.832;9.072;2024-02-16T06:05:43;7.90;99.90
11748;DHT22;5931;48.832;9.072;2024-02-16T06:08:12;7.90;99.90
11748;DHT22;5931;48.832;9.072;2024-02-16T06:10:38;7.80;99.90
11748;DHT22;5931;48.832;9.072;2024-02-16T06:13:05;7.80;99.90
11748;DHT22;5931;48.832;9.072;2024-02-16T06:15:32;7.80;99.90
11748;DHT22;5931;48.832;9.072;2024-02-16T06:18:00;7.80;99.90
11748;DHT22;5931;48.832;9.072;2024-02-16T06:20:26;7.80;99.90
11748;DHT22;5931;48.832;9.072;2024-02-16T06:22:52;7.90;99.90
11748;DHT22;5931;48.832;9.072;2024-02-16T06:25:17;7.90;99.90
11748;DHT22;5931;48.832;9.072;2024-02-16T06:27:44;7.80;99.90
11748;DHT22;5931;48.832;9.072;2024-02-16T06:30:12;7.70;99.90
11748;DHT22;5931;48.832;9.072;2024-02-16T06:32:39;7.60;99.90
11748;DHT22;5931;48.832;9.072;2024-02-16T06:35:07;7.60;99.90
11748;DHT22;5931;48.832;9.072;2024-02-16T06:37:33;7.50;99.90
11748;DHT22;5931;48.832;9.072;2024-02-16T06:39:59;7.50;99.90
11748;DHT22;5931;48.832;9.072;2024-02-16T06:42:25;7.50;99.90
11748;DHT22;5931;48.832;9.072;2024-02-16T06:44:51;7.50;99.90
11748;DHT22;5931;48.832;9.072;2024-02-16T06:47:16;7.50;99.90
11748;DHT22;5931;48.832;9.072;2024-02-16T06:49:42;7.40;99.90
11748;DHT22;5931;48.832;9.072;2024-02-16T06:52:08;7.50;99.90
11748;DHT22;5931;48.832;9.072;2024-02-16T06:54:35;7.50;99.90
11748;DHT22;5931;48.832;9.072;2024-02-16T06:57:01;7.60;99.90
11748;DHT22;5931;48.832;9.072;2024-02-16T06:59:27;7.60;99.90
11748;DHT22;5931;48.832;9.072;2024-02-16T07:01:53;7.60;99.90
11748;DHT22;5931;48.832;9.072;2024-02-16T07:04:18;7.60;99.90
11748;DHT22;5931;48.832;9.072;2024-02-16T07:06:44;7.60;99.90
11748;DHT22;5931;48.832;9.072;2024-02-16T07:09:10;7.60;99.90
11748;DHT22;5931;48.832;9.072;2024-02-16T07:11:36;7.60;99.90
11748;DHT22;5931;48.832;9.072;2024-02-16T07:14:03;7.70;99.90
11748;DHT22;5931;48.832;9.072;2024-02-16T07:16:32;7.70;99.90
11748;DHT22;5931;48.832;9.072;2024-02-16T07:18:58;7.70;99.90
11748;DHT22;5931;48.832;9.072;2024-02-16T07:21:23;7.70;99.90
11748;DHT22;5931;48.832;9.072;2024-02-16T07:23:52;7.60;99.90
11748;DHT22;5931;48.832;9.072;2024-02-16T07:26:18;7.60;99.90
11748;DHT22;5931;48.832;9.072;2024-02-16T07:28:44;7.60;99.90
11748;DHT22;5931;48.832;9.072;2024-02-16T07:31:10;7.60;99.90
11748;DHT22;5931;48.832;9.072;2024-02-16T07:33:36;7.50;99.90
11748;DHT22;5931;48.832;9.072;2024-02-16T07:36:03;7.50;99.90
11748;DHT22;5931;48.832;9.072;2024-02-16T07:38:28;7.50;99.90
11748;DHT22;5931;48.832;9.072;2024-02-16T07:40:54;7.50;99.90
11748;DHT22;5931;48.832;9.072;2024-02-16T07:43:21;7.50;99.90
11748;DHT22;5931;48.832;9.072;2024-02-16T07:45:50;7.50;99.90
11748;DHT22;5931;48.832;9.072;2024-02-16T07:48:20;7.50;99.90
11748;DHT22;5931;48.832;9.072;2024-02-16T07:50:47;7.50;99.90
11748;DHT22;5931;48.832;9.072;2024-02-16T07:53:14;7.50;99.90
11748;DHT22;5931;48.832;9.072;2024-02-16T07:55:39;7.60;99.90
11748;DHT22;5931;48.832;9.072;2024-02-16T07:58:05;7.60;99.90
11748;DHT22;5931;48.832;9.072;2024-02-16T08:00:31;7.70;99.90
11748;DHT22;5931;48.832;9.072;2024-02-16T08:02:57;7.80;99.90
11748;DHT22;5931;48.832;9.072;2024-02-16T08:05:22;8.00;99.90
11748;DHT22;5931;48.832;9.072;2024-02-16T08:07:50;8.20;99.90
11748;DHT22;5931;48.832;9.072;2024-02-16T08:10:19;8.30;99.90
11748;DHT22;5931;48.832;9.072;2024-02-16T08:12:46;8.40;99.90
11748;DHT22;5931;48.832;9.072;2024-02-16T08:15:12;8.70;99.90
11748;DHT22;5931;48.832;9.072;2024-02-16T08:17:39;8.80;99.90
11748;DHT22;5931;48.832;9.072;2024-02-16T08:20:06;9.10;99.90
11748;DHT22;5931;48.832;9.072;2024-02-16T08:22:32;9.40;99.90
11748;DHT22;5931;48.832;9.072;2024-02-16T08:24:59;9.60;99.90
11748;DHT22;5931;48.832;9.072;2024-02-16T08:27:24;9.80;99.90
11748;DHT22;5931;48.832;9.072;2024-02-16T08:29:50;10.00;99.90
11748;DHT22;5931;48.832;9.072;2024-02-16T08:32:19;10.10;99.90
11748;DHT22;5931;48.832;9.072;2024-02-16T08:34:46;10.30;99.90
11748;DHT22;5931;48.832;9.072;2024-02-16T08:37:14;10.50;99.90
11748;DHT22;5931;48.832;9.072;2024-02-16T08:39:41;10.70;99.90
11748;DHT22;5931;48.832;9.072;2024-02-16T08:42:07;10.90;99.90
11748;DHT22;5931;48.832;9.072;2024-02-16T08:44:40;11.20;99.90
11748;DHT22;5931;48.832;9.072;2024-02-16T08:47:06;11.30;99.90
11748;DHT22;5931;48.832;9.072;2024-02-16T08:49:33;11.50;99.90
11748;DHT22;5931;48.832;9.072;2024-02-16T08:52:00;11.60;99.90
11748;DHT22;5931;48.832;9.072;2024-02-16T08:54:26;11.70;99.90
11748;DHT22;5931;48.832;9.072;2024-02-16T08:56:55;11.70;99.90
11748;DHT22;5931;48.832;9.072;2024-02-16T08:59:21;11.80;99.90
11748;DHT22;5931;48.832;9.072;2024-02-16T09:01:47;12.10;99.90
11748;DHT22;5931;48.832;9.072;2024-02-16T09:04:13;12.30;99.90
11748;DHT22;5931;48.832;9.072;2024-02-16T09:06:39;12.40;99.90
11748;DHT22;5931;48.832;9.072;2024-02-16T09:09:05;12.50;99.90
11748;DHT22;5931;48.832;9.072;2024-02-16T09:11:33;12.60;99.90
11748;DHT22;5931;48.832;9.072;2024-02-16T09:13:59;12.70;99.90
11748;DHT22;5931;48.832;9.072;2024-02-16T09:16:26;12.80;99.90
11748;DHT22;5931;48.832;9.072;2024-02-16T09:18:51;13.00;99.90
11748;DHT22;5931;48.832;9.072;2024-02-16T09:21:17;13.10;99.90
11748;DHT22;5931;48.832;9.072;2024-02-16T09:23:57;13.30;99.90
11748;DHT22;5931;48.832;9.072;2024-02-16T09:26:27;13.60;99.90
11748;DHT22;5931;48.832;9.072;2024-02-16T09:28:56;13.80;99.90
11748;DHT22;5931;48.832;9.072;2024-02-16T09:31:23;13.90;99.90
11748;DHT22;5931;48.832;9.072;2024-02-16T09:33:49;14.10;99.90
11748;DHT22;5931;48.832;9.072;2024-02-16T09:36:17;14.20;99.90
11748;DHT22;5931;48.832;9.072;2024-02-16T09:38:43;14.40;99.90
11748;DHT22;5931;48.832;9.072;2024-02-16T09:41:09;14.50;99.90
11748;DHT22;5931;48.832;9.072;2024-02-16T09:43:35;14.70;99.90
11748;DHT22;5931;48.832;9.072;2024-02-16T09:46:00;14.90;99.90
11748;DHT22;5931;48.832;9.072;2024-02-16T09:48:27;15.10;99.90
11748;DHT22;5931;48.832;9.072;2024-02-16T09:50:54;15.20;99.90
11748;DHT22;5931;48.832;9.072;2024-02-16T09:53:23;15.40;99.90
11748;DHT22;5931;48.832;9.072;2024-02-16T09:55:50;15.50;99.90
11748;DHT22;5931;48.832;9.072;2024-02-16T09:58:17;15.60;99.90
11748;DHT22;5931;48.832;9.072;2024-02-16T10:00:55;15.80;99.90
11748;DHT22;5931;48.832;9.072;2024-02-16T10:03:27;16.10;99.90
11748;DHT22;5931;48.832;9.072;2024-02-16T10:06:08;16.30;99.90
11748;DHT22;5931;48.832;9.072;2024-02-16T10:08:34;16.50;99.90
11748;DHT22;5931;48.832;9.072;2024-02-16T10:11:02;16.80;99.90
11748;DHT22;5931;48.832;9.072;2024-02-16T10:13:28;16.90;99.90
11748;DHT22;5931;48.832;9.072;2024-02-16T10:16:05;17.10;99.90
11748;DHT22;5931;48.832;9.072;2024-02-16T10:18:31;17.30;99.90
11748;DHT22;5931;48.832;9.072;2024-02-16T10:20:57;17.40;99.90
11748;DHT22;5931;48.832;9.072;2024-02-16T10:23:23;17.50;99.90
11748;DHT22;5931;48.832;9.072;2024-02-16T10:25:49;17.40;99.90
11748;DHT22;5931;48.832;9.072;2024-02-16T10:28:14;17.30;99.90
11748;DHT22;5931;48.832;9.072;2024-02-16T10:30:43;17.50;99.90
11748;DHT22;5931;48.832;9.072;2024-02-16T10:33:09;17.60;99.90
11748;DHT22;5931;48.832;9.072;2024-02-16T10:35:38;17.60;99.90
11748;DHT22;5931;48.832;9.072;2024-02-16T10:38:06;17.90;99.90
11748;DHT22;5931;48.832;9.072;2024-02-16T10:40:42;18.10;99.90
11748;DHT22;5931;48.832;9.072;2024-02-16T10:43:09;18.10;99.90
11748;DHT22;5931;48.832;9.072;2024-02-16T10:45:37;18.10;99.90
11748;DHT22;5931;48.832;9.072;2024-02-16T10:48:04;18.30;99.90
11748;DHT22;5931;48.832;9.072;2024-02-16T10:50:32;18.20;99.90
11748;DHT22;5931;48.832;9.072;2024-02-16T10:55:39;18.50;99.90
11748;DHT22;5931;48.832;9.072;2024-02-16T10:58:07;18.70;99.90
11748;DHT22;5931;48.832;9.072;2024-02-16T11:00:33;18.80;99.90
11748;DHT22;5931;48.832;9.072;2024-02-16T11:03:03;18.80;99.90
11748;DHT22;5931;48.832;9.072;2024-02-16T11:05:36;18.90;99.90
11748;DHT22;5931;48.832;9.072;2024-02-16T11:08:05;19.00;99.90
11748;DHT22;5931;48.832;9.072;2024-02-16T11:10:37;19.00;99.90
11748;DHT22;5931;48.832;9.072;2024-02-16T11:13:03;19.00;99.90
11748;DHT22;5931;48.832;9.072;2024-02-16T11:15:38;19.10;99.90
11748;DHT22;5931;48.832;9.072;2024-02-16T11:18:04;19.30;99.90
11748;DHT22;5931;48.832;9.072;2024-02-16T11:20:37;19.30;99.90
11748;DHT22;5931;48.832;9.072;2024-02-16T11:23:08;19.30;99.90
11748;DHT22;5931;48.832;9.072;2024-02-16T11:25:36;19.10;99.90
11748;DHT22;5931;48.832;9.072;2024-02-16T11:28:02;19.20;99.90
11748;DHT22;5931;48.832;9.072;2024-02-16T11:30:34;19.20;99.90
11748;DHT22;5931;48.832;9.072;2024-02-16T11:33:01;19.10;99.90
11748;DHT22;5931;48.832;9.072;2024-02-16T11:35:27;18.80;99.90
11748;DHT22;5931;48.832;9.072;2024-02-16T11:37:55;18.60;99.90
11748;DHT22;5931;48.832;9.072;2024-02-16T11:40:21;18.40;99.90
11748;DHT22;5931;48.832;9.072;2024-02-16T11:42:47;18.10;99.90
11748;DHT22;5931;48.832;9.072;2024-02-16T11:45:13;18.00;99.90
11748;DHT22;5931;48.832;9.072;2024-02-16T11:47:39;18.00;99.90
11748;DHT22;5931;48.832;9.072;2024-02-16T11:50:08;18.10;99.90
11748;DHT22;5931;48.832;9.072;2024-02-16T11:52:38;18.30;99.90
11748;DHT22;5931;48.832;9.072;2024-02-16T11:55:08;18.60;99.90
11748;DHT22;5931;48.832;9.072;2024-02-16T11:57:34;18.50;99.90
11748;DHT22;5931;48.832;9.072;2024-02-16T12:00:02;18.70;99.90
11748;DHT22;5931;48.832;9.072;2024-02-16T12:02:37;18.80;99.90
11748;DHT22;5931;48.832;9.072;2024-02-16T12:05:03;18.80;99.90
11748;DHT22;5931;48.832;9.072;2024-02-16T12:07:31;18.80;99.90
11748;DHT22;5931;48.832;9.072;2024-02-16T12:09:59;18.90;99.90
11748;DHT22;5931;48.832;9.072;2024-02-16T12:12:26;19.10;99.90
11748;DHT22;5931;48.832;9.072;2024-02-16T12:14:54;19.20;99.90
11748;DHT22;5931;48.832;9.072;2024-02-16T12:17:20;19.30;99.90
11748;DHT22;5931;48.832;9.072;2024-02-16T12:19:46;19.40;99.90
11748;DHT22;5931;48.832;9.072;2024-02-16T12:22:22;19.50;99.90
11748;DHT22;5931;48.832;9.072;2024-02-16T12:24:49;19.30;99.90
11748;DHT22;5931;48.832;9.072;2024-02-16T12:27:16;19.20;99.90
11748;DHT22;5931;48.832;9.072;2024-02-16T12:29:41;18.50;99.90
11748;DHT22;5931;48.832;9.072;2024-02-16T12:32:07;17.90;99.90
11748;DHT22;5931;48.832;9.072;2024-02-16T12:34:36;17.80;99.90
11748;DHT22;5931;48.832;9.072;2024-02-16T12:37:06;17.90;99.90
11748;DHT22;5931;48.832;9.072;2024-02-16T12:39:34;18.00;99.90
11748;DHT22;5931;48.832;9.072;2024-02-16T12:41:59;18.00;99.90
11748;DHT22;5931;48.832;9.072;2024-02-16T12:44:26;18.10;99.90
11748;DHT22;5931;48.832;9.072;2024-02-16T12:46:51;18.00;99.90
11748;DHT22;5931;48.832;9.072;2024-02-16T12:49:17;18.10;99.90
11748;DHT22;5931;48.832;9.072;2024-02-16T12:51:50;18.10;99.90
11748;DHT22;5931;48.832;9.072;2024-02-16T12:54:17;18.30;99.90
11748;DHT22;5931;48.832;9.072;2024-02-16T12:56:45;18.30;99.90
11748;DHT22;5931;48.832;9.072;2024-02-16T12:59:12;18.30;99.90
11748;DHT22;5931;48.832;9.072;2024-02-16T13:01:37;18.40;99.90
11748;DHT22;5931;48.832;9.072;2024-02-16T13:04:03;18.60;99.90
11748;DHT22;5931;48.832;9.072;2024-02-16T13:06:30;18.80;99.90
11748;DHT22;5931;48.832;9.072;2024-02-16T13:08:55;19.00;99.90
11748;DHT22;5931;48.832;9.072;2024-02-16T13:11:21;19.20;99.90
11748;DHT22;5931;48.832;9.072;2024-02-16T13:13:47;19.30;99.90
11748;DHT22;5931;48.832;9.072;2024-02-16T13:16:13;19.30;99.90
11748;DHT22;5931;48.832;9.072;2024-02-16T13:18:39;19.50;99.90
11748;DHT22;5931;48.832;9.072;2024-02-16T13:21:06;19.60;99.90
11748;DHT22;5931;48.832;9.072;2024-02-16T13:23:35;19.40;99.90
11748;DHT22;5931;48.832;9.072;2024-02-16T13:26:01;19.40;99.90
11748;DHT22;5931;48.832;9.072;2024-02-16T13:28:27;19.40;99.90
11748;DHT22;5931;48.832;9.072;2024-02-16T13:30:53;19.10;99.90
11748;DHT22;5931;48.832;9.072;2024-02-16T13:33:19;18.70;99.90
11748;DHT22;5931;48.832;9.072;2024-02-16T13:35:44;18.70;99.90
11748;DHT22;5931;48.832;9.072;2024-02-16T13:38:10;18.50;99.90
11748;DHT22;5931;48.832;9.072;2024-02-16T13:41:01;18.30;99.90
11748;DHT22;5931;48.832;9.072;2024-02-16T13:43:30;18.30;99.90
11748;DHT22;5931;48.832;9.072;2024-02-16T13:45:56;18.10;99.90
11748;DHT22;5931;48.832;9.072;2024-02-16T13:48:24;18.00;99.90
11748;DHT22;5931;48.832;9.072;2024-02-16T13:50:50;17.80;99.90
11748;DHT22;5931;48.832;9.072;2024-02-16T13:53:17;17.70;99.90
11748;DHT22;5931;48.832;9.072;2024-02-16T13:55:43;17.50;99.90
11748;DHT22;5931;48.832;9.072;2024-02-16T13:58:12;17.50;99.90
11748;DHT22;5931;48.832;9.072;2024-02-16T14:00:38;17.50;99.90
11748;DHT22;5931;48.832;9.072;2024-02-16T14:03:09;17.60;99.90
11748;DHT22;5931;48.832;9.072;2024-02-16T14:05:37;17.60;99.90
11748;DHT22;5931;48.832;9.072;2024-02-16T14:08:04;17.40;99.90
11748;DHT22;5931;48.832;9.072;2024-02-16T14:10:42;17.50;99.90
11748;DHT22;5931;48.832;9.072;2024-02-16T14:13:08;17.50;99.90
11748;DHT22;5931;48.832;9.072;2024-02-16T14:15:42;17.60;99.90
11748;DHT22;5931;48.832;9.072;2024-02-16T14:18:08;17.50;99.90
11748;DHT22;5931;48.832;9.072;2024-02-16T14:20:34;17.50;99.90
11748;DHT22;5931;48.832;9.072;2024-02-16T14:23:00;17.40;99.90
11748;DHT22;5931;48.832;9.072;2024-02-16T14:25:28;17.30;99.90
11748;DHT22;5931;48.832;9.072;2024-02-16T14:27:54;17.30;99.90
11748;DHT22;5931;48.832;9.072;2024-02-16T14:30:21;17.30;99.90
11748;DHT22;5931;48.832;9.072;2024-02-16T14:32:46;17.30;99.90
11748;DHT22;5931;48.832;9.072;2024-02-16T14:35:12;17.20;99.90
11748;DHT22;5931;48.832;9.072;2024-02-16T14:37:38;17.20;99.90
11748;DHT22;5931;48.832;9.072;2024-02-16T14:40:05;17.10;99.90
11748;DHT22;5931;48.832;9.072;2024-02-16T14:42:35;17.10;99.90
11748;DHT22;5931;48.832;9.072;2024-02-16T14:45:01;16.80;99.90
11748;DHT22;5931;48.832;9.072;2024-02-16T14:47:28;16.70;99.90
11748;DHT22;5931;48.832;9.072;2024-02-16T14:49:54;16.70;99.90
11748;DHT22;5931;48.832;9.072;2024-02-16T14:52:20;16.70;99.90
11748;DHT22;5931;48.832;9.072;2024-02-16T14:54:46;16.70;99.90
11748;DHT22;5931;48.832;9.072;2024-02-16T14:57:12;16.70;99.90
11748;DHT22;5931;48.832;9.072;2024-02-16T14:59:38;16.80;99.90
11748;DHT22;5931;48.832;9.072;2024-02-16T15:02:03;16.70;99.90
11748;DHT22;5931;48.832;9.072;2024-02-16T15:04:29;16.70;99.90
11748;DHT22;5931;48.832;9.072;2024-02-16T15:06:56;16.60;99.90
11748;DHT22;5931;48.832;9.072;2024-02-16T15:09:22;16.50;99.90
11748;DHT22;5931;48.832;9.072;2024-02-16T15:11:48;16.50;99.90
11748;DHT22;5931;48.832;9.072;2024-02-16T15:14:14;16.40;99.90
11748;DHT22;5931;48.832;9.072;2024-02-16T15:16:39;16.40;99.90
11748;DHT22;5931;48.832;9.072;2024-02-16T15:19:05;16.50;99.90
11748;DHT22;5931;48.832;9.072;2024-02-16T15:21:31;16.40;99.90
11748;DHT22;5931;48.832;9.072;2024-02-16T15:23:57;16.40;99.90
11748;DHT22;5931;48.832;9.072;2024-02-16T15:26:22;16.40;99.90
11748;DHT22;5931;48.832;9.072;2024-02-16T15:28:48;16.30;99.90
11748;DHT22;5931;48.832;9.072;2024-02-16T15:31:14;16.30;99.90
11748;DHT22;5931;48.832;9.072;2024-02-16T15:33:40;16.30;99.90
11748;DHT22;5931;48.832;9.072;2024-02-16T15:36:07;16.20;99.90
11748;DHT22;5931;48.832;9.072;2024-02-16T15:38:34;16.20;99.90
11748;DHT22;5931;48.832;9.072;2024-02-16T15:41:00;16.10;99.90
11748;DHT22;5931;48.832;9.072;2024-02-16T15:43:25;16.00;99.90
11748;DHT22;5931;48.832;9.072;2024-02-16T15:45:53;16.00;99.90
11748;DHT22;5931;48.832;9.072;2024-02-16T15:48:18;15.90;99.90
11748;DHT22;5931;48.832;9.072;2024-02-16T15:50:44;15.70;99.90
11748;DHT22;5931;48.832;9.072;2024-02-16T15:53:10;15.70;99.90
11748;DHT22;5931;48.832;9.072;2024-02-16T15:55:37;15.70;99.90